Sterling, Virginia
Current Conditions -  °F | °C
As of 6:52 AM on Friday 24 Oct 2014 (Local Time) from KIAD Reporting Station
Few Clouds Few Clouds  
Wind Chill: 50°   Ceiling: Unl
Heat Index: 50°   Visibility: 10mi
Dew Point: 42°   Wind: 7mph
Humidity: 74%   Direction: 320°NW
Pressure: 29.98"   Gusts: NA
Location:  39.03°N, 77.41°W
Report Text: KIAD 241052Z 32006KT 10SM FEW200 10/06 A2998 RMK AO2 SLP151 T01000056
Loading
Personal Weather Stations






























Interactive Weather Map
Tropical Storm Tracking
New forecast layout! Learn more

10-Day Weather Forecast

Advertisements
Track Severe Weather on mobile